createdAt,value
2023-04-26T00:00:49.953Z,9.762658
2023-04-26T00:01:49.913Z,9.762671
2023-04-26T00:02:50.002Z,9.762751
2023-04-26T00:03:50.155Z,9.763054
2023-04-26T00:04:50.066Z,9.762735
2023-04-26T00:05:49.958Z,9.763202
2023-04-26T00:06:49.878Z,9.762781
2023-04-26T00:07:49.890Z,9.762433
2023-04-26T00:08:50.020Z,9.762502
2023-04-26T00:09:49.837Z,9.762663
2023-04-26T00:10:49.851Z,9.762959
2023-04-26T00:11:49.841Z,9.762905
2023-04-26T00:12:49.808Z,9.762749
2023-04-26T00:13:49.828Z,9.762765
2023-04-26T00:14:49.829Z,9.762648
2023-04-26T00:15:49.921Z,9.763030
2023-04-26T00:16:49.779Z,9.762732
2023-04-26T00:17:49.785Z,9.762872
2023-04-26T00:18:49.765Z,9.762774
2023-04-26T00:19:49.761Z,9.762814
2023-04-26T00:20:49.744Z,9.762811
2023-04-26T00:21:49.793Z,9.762856
2023-04-26T00:22:49.719Z,9.762766
2023-04-26T00:23:49.719Z,9.762874
2023-04-26T00:24:50.701Z,9.762873
2023-04-26T00:25:49.709Z,9.762859
2023-04-26T00:26:49.689Z,9.762882
2023-04-26T00:27:49.680Z,9.762783
2023-04-26T00:28:49.673Z,9.762763
2023-04-26T00:29:49.653Z,9.762978
2023-04-26T00:30:49.646Z,9.763122
2023-04-26T00:31:49.688Z,9.761254
2023-04-26T00:32:49.642Z,9.763243
2023-04-26T00:33:49.619Z,9.762890
2023-04-26T00:34:49.599Z,9.762665
2023-04-26T00:35:49.579Z,9.762611
2023-04-26T00:36:49.568Z,9.762707
2023-04-26T00:37:49.624Z,9.762550
2023-04-26T00:38:49.768Z,9.762733
2023-04-26T00:39:49.559Z,9.762640
2023-04-26T00:40:49.552Z,9.762500
2023-04-26T00:41:49.516Z,9.762311
2023-04-26T00:42:49.511Z,9.762399
2023-04-26T00:43:49.537Z,9.762905
2023-04-26T00:44:49.511Z,9.762773
2023-04-26T00:45:49.516Z,9.762759
2023-04-26T00:46:49.487Z,9.762641
2023-04-26T00:47:49.531Z,9.762736
2023-04-26T00:48:49.527Z,9.762571
2023-04-26T00:49:49.468Z,9.765406
2023-04-26T00:50:49.442Z,9.770117
2023-04-26T00:51:49.418Z,9.776748
2023-04-26T00:52:49.431Z,9.786773
2023-04-26T00:53:49.401Z,9.787992
2023-04-26T00:54:49.434Z,9.763524
2023-04-26T00:55:49.436Z,9.763126
2023-04-26T00:56:49.372Z,9.762830
2023-04-26T00:57:49.379Z,9.762988
2023-04-26T00:58:49.737Z,9.762631
2023-04-26T00:59:49.358Z,9.762821
2023-04-26T01:00:49.336Z,9.762875
2023-04-26T01:01:49.405Z,9.762655
2023-04-26T01:02:49.409Z,9.762602
2023-04-26T01:03:49.526Z,9.762514
2023-04-26T01:04:49.300Z,9.762519
2023-04-26T01:05:49.302Z,9.762654
2023-04-26T01:06:49.265Z,9.762570
2023-04-26T01:07:49.271Z,9.762802
2023-04-26T01:08:49.429Z,9.762728
2023-04-26T01:09:49.313Z,9.762689
2023-04-26T01:10:49.253Z,9.762791
2023-04-26T01:11:49.225Z,9.762765
2023-04-26T01:12:49.235Z,9.762815
2023-04-26T01:13:49.208Z,9.762813
2023-04-26T01:14:49.213Z,9.762696
2023-04-26T01:15:49.198Z,9.762670
2023-04-26T01:16:49.217Z,9.762682
2023-04-26T01:17:49.201Z,9.762781
2023-04-26T01:18:49.294Z,9.762757
2023-04-26T01:19:49.177Z,9.762621
2023-04-26T01:20:49.142Z,9.762731
2023-04-26T01:21:49.129Z,9.763041
2023-04-26T01:22:49.111Z,9.762867
2023-04-26T01:23:49.123Z,9.762643
2023-04-26T01:24:49.086Z,9.762623
2023-04-26T01:25:49.080Z,9.762614
2023-04-26T01:26:49.074Z,9.762683
2023-04-26T01:27:49.067Z,9.762555
2023-04-26T01:28:49.131Z,9.762643
2023-04-26T01:29:49.058Z,9.762647
2023-04-26T01:30:49.041Z,9.762803
2023-04-26T01:31:49.019Z,9.762944
2023-04-26T01:32:49.030Z,9.762772
2023-04-26T01:33:49.027Z,9.762812
2023-04-26T01:34:48.999Z,9.762755
2023-04-26T01:35:48.971Z,9.763019
2023-04-26T01:36:48.973Z,9.762723
2023-04-26T01:37:48.971Z,9.762710
2023-04-26T01:38:49.083Z,9.762813
2023-04-26T01:39:48.945Z,9.762815
2023-04-26T01:40:48.947Z,9.762845
2023-04-26T01:41:48.934Z,9.762733
2023-04-26T01:42:48.925Z,9.762622
2023-04-26T01:43:48.917Z,9.762726
2023-04-26T01:44:48.949Z,9.762458
2023-04-26T01:45:48.906Z,9.762650
2023-04-26T01:46:48.994Z,9.762700
2023-04-26T01:47:48.920Z,9.763000
2023-04-26T01:48:48.881Z,9.762725
2023-04-26T01:49:48.890Z,9.762689
2023-04-26T01:50:48.846Z,9.762707
2023-04-26T01:51:48.845Z,9.762621
2023-04-26T01:52:48.811Z,9.762745
2023-04-26T01:53:48.807Z,9.762699
2023-04-26T01:54:48.827Z,9.762788
2023-04-26T01:55:48.810Z,9.762577
2023-04-26T01:56:48.790Z,9.762725
2023-04-26T01:57:48.762Z,9.762700
2023-04-26T01:58:48.762Z,9.762731
2023-04-26T01:59:48.776Z,9.762700
2023-04-26T02:00:48.744Z,9.762856
2023-04-26T02:01:48.762Z,9.762694
2023-04-26T02:02:48.832Z,9.762998
2023-04-26T02:03:48.753Z,9.762911
2023-04-26T02:04:48.734Z,9.763054
2023-04-26T02:05:48.695Z,9.763833
2023-04-26T02:06:48.667Z,9.762812
2023-04-26T02:07:48.689Z,9.762591
2023-04-26T02:08:48.655Z,9.762626
2023-04-26T02:09:48.690Z,9.762631
2023-04-26T02:10:48.645Z,9.763063
2023-04-26T02:11:48.634Z,9.762892
2023-04-26T02:12:48.617Z,9.762767
2023-04-26T02:13:48.681Z,9.762604
2023-04-26T02:14:48.615Z,9.762787
2023-04-26T02:15:48.605Z,9.762895
2023-04-26T02:16:48.585Z,9.762693
2023-04-26T02:17:48.636Z,9.762740
2023-04-26T02:18:48.573Z,9.762831
2023-04-26T02:19:48.561Z,9.762865
2023-04-26T02:20:48.541Z,9.762457
2023-04-26T02:21:48.549Z,9.761850
2023-04-26T02:22:48.530Z,9.762383
2023-04-26T02:23:48.520Z,9.762476
2023-04-26T02:24:48.527Z,9.762394
2023-04-26T02:25:48.498Z,9.762649
2023-04-26T02:26:48.483Z,9.762898
2023-04-26T02:27:48.474Z,9.762955
2023-04-26T02:28:48.487Z,9.762757
2023-04-26T02:29:48.478Z,9.763265
2023-04-26T02:30:48.438Z,9.762562
2023-04-26T02:31:48.468Z,9.762735
2023-04-26T02:32:48.445Z,9.762570
2023-04-26T02:33:48.439Z,9.762531
2023-04-26T02:34:48.427Z,9.762710
2023-04-26T02:35:48.387Z,9.762683
2023-04-26T02:36:48.397Z,9.762751
2023-04-26T02:37:48.423Z,9.762740
2023-04-26T02:38:48.380Z,9.762801
2023-04-26T02:39:48.386Z,9.762741
2023-04-26T02:40:48.366Z,9.762703
2023-04-26T02:41:48.330Z,9.762706
2023-04-26T02:42:48.320Z,9.762767
2023-04-26T02:43:48.316Z,9.762779
2023-04-26T02:44:48.309Z,9.762865
2023-04-26T02:45:48.392Z,9.762745
2023-04-26T02:46:48.361Z,9.762631
2023-04-26T02:47:48.335Z,9.762608
2023-04-26T02:48:48.266Z,9.762524
2023-04-26T02:49:48.272Z,9.762816
2023-04-26T02:50:48.245Z,9.763256
2023-04-26T02:51:48.237Z,9.762681
2023-04-26T02:52:48.227Z,9.762533
2023-04-26T02:53:48.234Z,9.762524
2023-04-26T02:54:48.212Z,9.762309
2023-04-26T02:55:48.217Z,9.762309
2023-04-26T02:56:48.185Z,9.762309
2023-04-26T02:57:48.192Z,9.762309
2023-04-26T11:11:03.948Z,9.763076
2023-04-26T11:12:03.947Z,9.763166
2023-04-26T11:13:03.952Z,9.763166
2023-04-26T11:14:03.921Z,9.763166
2023-04-26T11:15:03.924Z,9.763695
2023-04-26T11:16:03.978Z,9.763735
2023-04-26T11:17:03.881Z,9.763345
2023-04-26T11:18:03.966Z,9.763068
2023-04-26T11:19:03.890Z,9.763068
2023-04-26T11:20:04.048Z,9.763068
2023-04-26T11:21:03.841Z,9.763245
2023-04-26T11:22:03.855Z,9.763198
2023-04-26T11:23:04.846Z,9.763198
2023-04-26T11:24:03.852Z,9.763198
2023-04-26T11:25:03.813Z,9.763198
2023-04-26T11:26:03.814Z,9.763198
2023-04-26T11:27:03.828Z,9.763198
2023-04-26T11:28:03.815Z,9.763198
2023-04-26T11:29:03.786Z,9.763198
2023-04-26T11:30:03.854Z,9.763198
2023-04-26T11:31:05.965Z,9.763198
2023-04-26T11:32:03.766Z,9.763198
2023-04-26T11:33:03.794Z,9.763198
2023-04-26T11:34:03.757Z,9.763198
2023-04-26T11:35:03.723Z,9.763198
2023-04-26T11:36:03.761Z,9.763198
2023-04-26T11:37:03.710Z,9.763198
2023-04-26T11:38:03.699Z,9.763198
2023-04-26T11:39:03.707Z,9.763198
2023-04-26T11:40:03.709Z,9.763198
2023-04-26T11:41:03.675Z,9.763198
2023-04-26T11:42:03.662Z,9.763198
2023-04-26T11:43:03.676Z,9.763198
2023-04-26T11:44:03.669Z,9.763198
2023-04-26T11:45:03.635Z,9.763198
2023-04-26T11:46:03.691Z,9.763198
2023-04-26T11:47:03.651Z,9.763198
2023-04-26T11:48:03.623Z,9.763198
2023-04-26T11:49:03.582Z,9.763198
2023-04-26T11:50:03.584Z,9.763198
2023-04-26T11:51:03.568Z,9.763198
2023-04-26T11:52:03.577Z,9.763198
2023-04-26T11:53:03.564Z,9.763198
2023-04-26T11:54:03.537Z,9.763198
2023-04-26T11:55:03.529Z,9.763198
2023-04-26T11:56:03.551Z,9.763198
2023-04-26T11:57:03.514Z,9.763198
2023-04-26T11:58:03.503Z,9.763198
2023-04-26T11:59:03.470Z,9.763198
2023-04-26T12:00:03.459Z,9.763198
2023-04-26T12:01:03.459Z,9.763198
2023-04-26T12:02:03.488Z,9.763198
2023-04-26T12:03:03.683Z,9.763198
2023-04-26T12:04:03.568Z,9.763198
2023-04-26T12:05:03.682Z,9.763198
2023-04-26T12:06:03.415Z,9.763198
2023-04-26T12:07:03.390Z,9.763198
2023-04-26T12:08:03.412Z,9.763198
2023-04-26T12:09:03.505Z,9.763198
2023-04-26T12:10:03.396Z,9.763198
2023-04-26T12:11:03.408Z,9.763198
2023-04-26T12:12:03.369Z,9.763198
2023-04-26T12:13:03.366Z,9.763198
2023-04-26T12:14:03.376Z,9.763198
2023-04-26T12:15:03.343Z,9.763198
2023-04-26T12:16:07.342Z,9.763198
2023-04-26T12:17:04.460Z,9.763198
2023-04-26T12:18:03.366Z,9.763198
2023-04-26T12:19:03.337Z,9.763198
2023-04-26T12:20:03.351Z,9.763198
2023-04-26T12:21:03.278Z,9.763198
2023-04-26T12:22:03.266Z,9.763198
2023-04-26T12:23:03.271Z,9.763198
2023-04-26T12:24:03.238Z,9.763198
2023-04-26T12:25:03.302Z,9.763198
2023-04-26T12:26:03.214Z,9.763198
2023-04-26T12:27:03.215Z,9.763198
2023-04-26T12:28:03.252Z,9.763198
2023-04-26T12:29:03.210Z,9.763198
2023-04-26T12:30:03.208Z,9.763198
2023-04-26T12:31:03.814Z,9.763198
2023-04-26T12:32:03.425Z,9.763198
2023-04-26T12:33:15.684Z,9.763198
2023-04-26T12:34:05.130Z,9.763198
2023-04-26T12:35:03.166Z,9.763198
2023-04-26T12:36:03.127Z,9.763198
2023-04-26T12:37:03.114Z,9.763198
2023-04-26T12:38:03.092Z,9.763198
2023-04-26T12:39:03.084Z,9.763198
2023-04-26T12:40:03.077Z,9.763198
2023-04-26T12:41:03.068Z,9.763198
2023-04-26T12:42:03.059Z,9.763198
2023-04-26T12:43:03.085Z,9.763198
2023-04-26T12:44:03.042Z,9.763198
2023-04-26T12:45:03.052Z,9.763198
2023-04-26T12:46:03.071Z,9.763198
2023-04-26T12:47:03.011Z,9.763198
2023-04-26T12:48:03.044Z,9.763198
2023-04-26T12:49:03.007Z,9.763198
2023-04-26T12:50:02.967Z,9.763198
2023-04-26T12:51:02.961Z,9.763198
2023-04-26T12:52:02.943Z,9.763198
2023-04-26T12:53:02.955Z,9.763198
2023-04-26T12:54:02.944Z,9.763198
2023-04-26T12:55:02.922Z,9.763198
2023-04-26T12:56:02.906Z,9.763198
2023-04-26T12:57:02.929Z,9.763198
2023-04-26T12:58:02.894Z,9.763198
2023-04-26T12:59:02.889Z,9.763198
2023-04-26T13:00:02.880Z,9.763198
2023-04-26T13:01:02.935Z,9.763198
2023-04-26T13:02:02.882Z,9.763198
2023-04-26T13:03:03.029Z,9.763198
2023-04-26T13:04:02.977Z,9.763198
2023-04-26T13:05:02.890Z,9.763198
2023-04-26T13:06:02.829Z,9.763198
2023-04-26T13:07:02.784Z,9.763198
2023-04-26T13:08:02.812Z,9.763198
2023-04-26T13:09:02.760Z,9.763198
2023-04-26T13:10:02.768Z,9.763198
2023-04-26T13:11:02.760Z,9.763198
2023-04-26T13:12:02.724Z,9.763198
2023-04-26T13:13:02.753Z,9.763198
2023-04-26T13:14:02.756Z,9.763198
2023-04-26T13:15:02.717Z,9.763198
2023-04-26T13:16:02.763Z,9.763198
2023-04-26T13:17:02.715Z,9.763198
2023-04-26T13:18:02.745Z,9.763198
2023-04-26T13:19:02.717Z,9.763198
2023-04-26T13:20:02.694Z,9.763198
2023-04-26T13:21:02.668Z,9.763198
2023-04-26T13:22:02.651Z,9.763198
2023-04-26T13:23:02.635Z,9.763198
2023-04-26T13:24:02.678Z,9.763198
2023-04-26T13:25:02.785Z,9.763198
2023-04-26T13:26:02.606Z,9.763198
2023-04-26T13:27:02.628Z,9.763198
2023-04-26T13:28:02.606Z,9.763198
2023-04-26T13:29:02.578Z,9.763198
2023-04-26T13:30:02.568Z,9.763198
2023-04-26T13:31:02.600Z,9.763198
2023-04-26T13:32:02.560Z,9.763198
2023-04-26T13:33:02.558Z,9.763198
2023-04-26T13:34:02.518Z,9.763198
2023-04-26T13:35:02.540Z,9.763198
2023-04-26T13:36:02.493Z,9.763198
2023-04-26T13:37:02.504Z,9.763198
2023-04-26T13:38:02.485Z,9.763198
2023-04-26T13:39:02.468Z,9.763198
2023-04-26T13:40:02.465Z,9.763198
2023-04-26T13:41:02.491Z,9.763198
2023-04-26T13:42:02.448Z,9.763198
2023-04-26T13:43:02.480Z,9.763198
2023-04-26T13:44:02.425Z,9.763198
2023-04-26T13:45:02.422Z,9.763198
2023-04-26T13:46:02.436Z,9.763198
2023-04-26T13:47:02.401Z,9.763198
2023-04-26T13:48:02.458Z,9.763198
2023-04-26T13:49:02.354Z,9.763198
2023-04-26T13:50:02.357Z,9.763198
2023-04-26T13:51:03.577Z,9.763198
2023-04-26T13:52:03.333Z,9.763198
2023-04-26T13:53:02.329Z,9.763198
2023-04-26T13:54:02.320Z,9.763198
2023-04-26T13:55:02.300Z,9.763198
2023-04-26T13:56:02.307Z,9.763198
2023-04-26T13:57:02.273Z,9.763198
2023-04-26T13:58:02.266Z,9.763198
2023-04-26T13:59:02.257Z,9.763198
2023-04-26T14:00:02.307Z,9.763198
2023-04-26T14:01:02.266Z,9.763198
2023-04-26T14:02:02.271Z,9.763198
2023-04-26T14:03:02.453Z,9.763198
2023-04-26T14:04:02.679Z,9.763198
2023-04-26T14:05:02.343Z,9.763198
2023-04-26T14:06:02.202Z,9.763198
2023-04-26T14:07:02.176Z,9.763198
2023-04-26T14:08:02.190Z,9.763198
2023-04-26T14:09:02.175Z,9.763198
2023-04-26T14:10:02.195Z,9.763198
2023-04-26T14:11:02.156Z,9.763198
2023-04-26T14:12:08.607Z,9.763198
2023-04-26T14:13:04.133Z,9.763198
2023-04-26T14:14:02.127Z,9.763198
2023-04-26T14:15:02.095Z,9.763198
2023-04-26T14:16:02.122Z,9.763198
2023-04-26T14:17:02.079Z,9.763198
2023-04-26T14:18:02.194Z,9.763198
2023-04-26T14:19:02.054Z,9.763198
2023-04-26T14:20:02.110Z,9.763198
2023-04-26T14:21:02.047Z,9.763198
2023-04-26T14:22:02.047Z,9.763198
2023-04-26T14:23:02.037Z,9.763198
2023-04-26T14:24:02.044Z,9.763198
2023-04-26T14:25:02.052Z,9.763198
2023-04-26T14:26:02.013Z,9.763198
2023-04-26T14:27:01.996Z,9.763198
2023-04-26T14:28:02.001Z,9.763198
2023-04-26T14:29:01.962Z,9.763198
2023-04-26T14:30:01.942Z,9.763198
2023-04-26T14:31:01.947Z,9.763198
2023-04-26T14:32:02.019Z,9.763198
2023-04-26T14:33:01.953Z,9.763198
2023-04-26T14:34:01.929Z,9.763198
2023-04-26T14:35:01.885Z,9.763198
2023-04-26T14:36:01.887Z,9.763198
2023-04-26T14:37:01.884Z,9.763198
2023-04-26T14:38:01.908Z,9.763198
2023-04-26T14:39:01.889Z,9.763198
2023-04-26T14:40:01.934Z,9.763198
2023-04-26T14:41:01.864Z,9.763198
2023-04-26T14:42:01.866Z,9.763198
2023-04-26T14:43:01.839Z,9.763198
2023-04-26T14:44:01.846Z,9.763198
2023-04-26T14:45:01.816Z,9.763198
2023-04-26T14:46:01.823Z,9.763198
2023-04-26T14:47:01.791Z,9.763198
2023-04-26T14:48:01.815Z,9.763198
2023-04-26T14:49:01.773Z,9.763198
2023-04-26T14:50:01.785Z,9.763198
2023-04-26T14:51:01.740Z,9.763198
2023-04-26T14:52:01.725Z,9.763198
2023-04-26T14:53:01.754Z,9.763198
2023-04-26T14:54:01.722Z,9.763198
2023-04-26T14:55:01.699Z,9.763198
2023-04-26T14:56:01.676Z,9.763198
2023-04-26T14:57:01.730Z,9.763198
2023-04-26T14:58:01.699Z,9.763198
2023-04-26T14:59:01.699Z,9.763198
2023-04-26T15:00:01.656Z,9.763198
2023-04-26T15:01:01.689Z,9.763198
2023-04-26T15:02:01.686Z,9.763198
2023-04-26T15:03:01.798Z,9.763198
2023-04-26T15:04:01.962Z,9.763198
2023-04-26T15:05:01.643Z,9.763198
2023-04-26T15:06:01.607Z,9.763198
2023-04-26T15:07:01.575Z,9.763198
2023-04-26T15:08:01.564Z,9.763198
2023-04-26T15:09:01.597Z,9.763198
2023-04-26T15:10:01.668Z,9.763198
2023-04-26T15:11:01.556Z,9.763198
2023-04-26T15:12:01.540Z,9.763198
2023-04-26T15:13:01.540Z,9.763198
2023-04-26T15:14:01.516Z,9.763198
2023-04-26T15:15:01.530Z,9.763198
2023-04-26T15:16:01.512Z,9.763198
2023-04-26T15:17:01.540Z,9.763198
2023-04-26T15:18:01.542Z,9.763198
2023-04-26T15:19:01.456Z,9.763198
2023-04-26T15:20:01.440Z,9.763198
2023-04-26T15:21:01.540Z,9.763198
2023-04-26T15:22:01.421Z,9.763198
2023-04-26T15:23:01.443Z,9.763198
2023-04-26T15:24:01.411Z,9.763198
2023-04-26T15:25:01.399Z,9.763198
2023-04-26T15:26:01.385Z,9.763198
2023-04-26T15:27:01.366Z,9.763198
2023-04-26T15:28:01.348Z,9.763198
2023-04-26T15:29:01.375Z,9.763198
2023-04-26T15:30:01.357Z,9.763198
2023-04-26T15:31:01.375Z,9.763198
2023-04-26T15:32:01.450Z,9.763198
2023-04-26T15:33:01.400Z,9.763198
2023-04-26T15:34:01.305Z,9.763198
2023-04-26T15:35:01.304Z,9.763198
2023-04-26T15:36:01.306Z,9.763198
2023-04-26T15:37:01.287Z,9.763198
2023-04-26T15:38:01.272Z,9.763198
2023-04-26T15:39:01.283Z,9.763198
2023-04-26T15:40:01.285Z,9.763198
2023-04-26T15:41:01.226Z,9.763198
2023-04-26T15:42:01.260Z,9.763198
2023-04-26T15:43:01.220Z,9.763198
2023-04-26T15:44:01.225Z,9.763198
2023-04-26T15:45:01.182Z,9.763198
2023-04-26T15:46:01.256Z,9.763198
2023-04-26T15:47:01.262Z,9.763198
2023-04-26T15:48:01.327Z,9.763198
2023-04-26T15:49:01.158Z,9.763198
2023-04-26T15:50:01.181Z,9.763198
2023-04-26T15:51:01.138Z,9.763198
2023-04-26T15:52:01.109Z,9.763198
2023-04-26T15:53:01.117Z,9.763198
2023-04-26T15:54:01.118Z,9.763198
2023-04-26T15:55:01.135Z,9.763198
2023-04-26T15:56:01.080Z,9.763198
2023-04-26T15:57:01.042Z,9.763198
2023-04-26T15:58:01.056Z,9.763198
2023-04-26T15:59:01.130Z,9.763198
2023-04-26T16:00:01.030Z,9.763198
2023-04-26T16:01:01.042Z,9.763198
2023-04-26T16:02:01.185Z,9.763198
2023-04-26T16:03:01.177Z,9.763198
2023-04-26T16:04:01.159Z,9.763198
2023-04-26T16:05:34.996Z,9.763198
2023-04-26T16:06:00.981Z,9.763198
2023-04-26T16:07:00.969Z,9.763198
2023-04-26T16:08:00.984Z,9.763198
2023-04-26T16:09:02.023Z,9.763198
2023-04-26T16:10:00.924Z,9.763198
2023-04-26T16:11:00.978Z,9.763198
2023-04-26T16:12:00.942Z,9.763198
2023-04-26T16:13:00.905Z,9.763198
2023-04-26T16:14:00.922Z,9.763198
2023-04-26T16:15:00.913Z,9.763198
2023-04-26T16:16:00.934Z,9.763198
2023-04-26T16:17:01.591Z,9.763198
2023-04-26T16:18:00.986Z,9.763198
2023-04-26T16:19:00.910Z,9.763198
2023-04-26T16:20:01.032Z,9.763198
2023-04-26T16:21:00.855Z,9.763198
2023-04-26T16:22:00.849Z,9.763198
2023-04-26T16:23:00.846Z,9.763198
2023-04-26T16:24:00.854Z,9.763198
2023-04-26T16:25:00.836Z,9.763198
2023-04-26T16:26:00.812Z,9.763198
2023-04-26T16:27:00.808Z,9.763198
2023-04-26T16:28:00.789Z,9.763198
2023-04-26T16:29:00.827Z,9.763198
2023-04-26T16:30:00.981Z,9.763198
2023-04-26T16:31:00.938Z,9.763198
2023-04-26T16:32:01.024Z,9.763198
2023-04-26T16:33:00.791Z,9.763198
2023-04-26T16:34:00.776Z,9.763198
2023-04-26T16:35:00.758Z,9.763198
2023-04-26T16:36:00.780Z,9.763198
2023-04-26T16:37:00.727Z,9.763198
2023-04-26T16:38:00.778Z,9.763198
2023-04-26T16:39:00.762Z,9.763198
2023-04-26T16:40:01.663Z,9.763198
2023-04-26T16:41:00.850Z,9.763198
2023-04-26T16:42:00.747Z,9.763198
2023-04-26T16:43:00.763Z,9.763198
2023-04-26T16:44:00.722Z,9.763198
2023-04-26T16:45:00.727Z,9.763198
2023-04-26T16:46:00.736Z,9.763198
2023-04-26T16:47:00.659Z,9.763198
2023-04-26T16:48:00.729Z,9.763198
2023-04-26T16:49:00.745Z,9.763198
2023-04-26T16:50:00.689Z,9.763198
2023-04-26T16:51:00.721Z,9.763198
2023-04-26T16:52:00.867Z,9.763198
2023-04-26T16:53:00.627Z,9.763198
2023-04-26T16:54:01.072Z,9.763198
2023-04-26T16:55:00.774Z,9.763198
2023-04-26T16:56:00.610Z,9.763198
2023-04-26T16:57:00.796Z,9.763198
2023-04-26T16:58:00.511Z,9.763198
2023-04-26T16:59:00.751Z,9.763198
2023-04-26T17:00:00.586Z,9.763198
2023-04-26T17:01:00.576Z,9.763198
2023-04-26T17:02:00.530Z,9.763198
2023-04-26T17:03:00.601Z,9.763198
2023-04-26T17:04:00.886Z,9.763198
2023-04-26T17:05:00.828Z,9.763198
2023-04-26T17:06:00.520Z,9.763198
2023-04-26T17:07:00.469Z,9.763198
2023-04-26T17:08:00.466Z,9.763198
2023-04-26T17:09:00.433Z,9.763198
2023-04-26T17:10:00.548Z,9.763198
2023-04-26T17:11:00.401Z,9.763198
2023-04-26T17:12:00.358Z,9.763198
2023-04-26T17:13:00.369Z,9.763198
2023-04-26T17:14:00.419Z,9.763198
2023-04-26T17:15:02.290Z,9.763198
2023-04-26T17:16:00.375Z,9.763198
2023-04-26T17:17:00.324Z,9.763198
2023-04-26T17:18:00.343Z,9.763198
2023-04-26T17:19:00.272Z,9.763198
2023-04-26T17:20:00.319Z,9.763198
2023-04-26T17:21:00.241Z,9.763198
2023-04-26T17:22:00.293Z,9.763198
2023-04-26T17:23:01.280Z,9.763198
2023-04-26T17:24:00.222Z,9.763198
2023-04-26T17:25:00.249Z,9.763198
2023-04-26T17:26:00.174Z,9.763198
2023-04-26T17:27:00.194Z,9.763198
2023-04-26T17:28:00.193Z,9.763198
2023-04-26T17:29:00.167Z,9.763198
2023-04-26T17:30:00.206Z,9.763198
2023-04-26T17:31:00.204Z,9.763198
2023-04-26T17:32:00.273Z,9.763198
2023-04-26T17:33:00.373Z,9.763198
2023-04-26T17:34:00.933Z,9.763198
2023-04-26T17:35:00.178Z,9.763198
2023-04-26T17:36:00.166Z,9.763198
2023-04-26T17:37:00.218Z,9.763198
2023-04-26T17:38:00.168Z,9.763198
2023-04-26T17:39:00.110Z,9.763198
2023-04-26T17:40:00.179Z,9.763198
2023-04-26T17:41:00.142Z,9.763198
2023-04-26T17:42:00.124Z,9.763198
2023-04-26T17:43:00.127Z,9.763198
2023-04-26T17:44:00.121Z,9.763198
2023-04-26T17:45:00.158Z,9.763198
2023-04-26T17:46:00.097Z,9.763198
2023-04-26T17:47:00.093Z,9.763198
2023-04-26T17:48:00.144Z,9.763198
2023-04-26T17:49:00.023Z,9.763198
2023-04-26T17:50:00.010Z,9.763198
2023-04-26T17:50:59.984Z,9.763198
2023-04-26T17:52:00.009Z,9.763198
2023-04-26T17:53:00.069Z,9.763198
2023-04-26T17:53:59.944Z,9.763198
2023-04-26T17:54:59.946Z,9.763198
2023-04-26T17:55:59.981Z,9.763198
2023-04-26T17:56:59.920Z,9.763198
2023-04-26T17:57:59.910Z,9.763198
2023-04-26T17:59:00.764Z,9.763198
2023-04-26T17:59:59.863Z,9.763198
2023-04-26T18:00:59.939Z,9.763198
2023-04-26T18:02:00.031Z,9.763198
2023-04-26T18:03:00.017Z,9.763198
2023-04-26T18:04:00.058Z,9.763198
2023-04-26T18:04:59.907Z,9.763198
2023-04-26T18:05:59.890Z,9.763198
2023-04-26T18:06:59.801Z,9.763198
2023-04-26T18:07:59.897Z,9.763198
2023-04-26T18:08:59.807Z,9.763198
2023-04-26T18:09:59.801Z,9.763198
2023-04-26T18:10:59.753Z,9.763198
2023-04-26T18:11:59.732Z,9.763198
2023-04-26T18:12:59.750Z,9.763198
2023-04-26T18:13:59.828Z,9.763198
2023-04-26T18:14:59.757Z,9.763198
2023-04-26T18:15:59.728Z,9.763198
2023-04-26T18:16:59.777Z,9.763198
2023-04-26T18:17:59.773Z,9.763198
2023-04-26T18:18:59.662Z,9.763198
2023-04-26T18:19:59.703Z,9.763198
2023-04-26T18:20:59.648Z,9.763198
2023-04-26T18:21:59.651Z,9.763198
2023-04-26T18:22:59.643Z,9.763198
2023-04-26T18:23:59.639Z,9.763198
2023-04-26T18:24:59.654Z,9.763198
2023-04-26T18:25:59.574Z,9.763198
2023-04-26T18:26:59.597Z,9.763198
2023-04-26T18:27:59.675Z,9.763198
2023-04-26T18:28:59.658Z,9.763198
2023-04-26T18:30:00.444Z,9.763198
2023-04-26T18:30:59.609Z,9.763198
2023-04-26T18:31:59.530Z,9.763198
2023-04-26T18:32:59.715Z,9.763198
2023-04-26T18:33:59.627Z,9.763198
2023-04-26T18:34:59.582Z,9.763198
2023-04-26T18:35:59.504Z,9.763198
2023-04-26T18:36:59.610Z,9.763198
2023-04-26T18:37:59.591Z,9.763198
2023-04-26T18:39:01.032Z,9.763198
2023-04-26T18:40:00.475Z,9.763198
2023-04-26T18:40:59.420Z,9.763198
2023-04-26T18:41:59.431Z,9.763198
2023-04-26T18:42:59.458Z,9.763198
2023-04-26T18:43:59.453Z,9.763198
2023-04-26T18:44:59.446Z,9.763198
2023-04-26T18:45:59.485Z,9.763198
2023-04-26T18:46:59.401Z,9.763198
2023-04-26T18:47:59.440Z,9.763198
2023-04-26T18:48:59.387Z,9.763198
2023-04-26T18:49:59.381Z,9.763198
2023-04-26T18:50:59.341Z,9.763198
2023-04-26T18:51:59.310Z,9.763198
2023-04-26T18:52:59.294Z,9.763198
2023-04-26T18:53:59.326Z,9.763198
2023-04-26T18:54:59.275Z,9.763198
2023-04-26T18:55:59.300Z,9.763198
2023-04-26T18:57:01.090Z,9.763198
2023-04-26T18:57:59.277Z,9.763198
2023-04-26T18:58:59.254Z,9.763198
2023-04-26T18:59:59.282Z,9.763198
2023-04-26T19:00:59.212Z,9.763198
2023-04-26T19:01:59.297Z,9.763198
2023-04-26T19:02:59.342Z,9.763198
2023-04-26T19:03:59.361Z,9.763198
2023-04-26T19:04:59.430Z,9.763198
2023-04-26T19:05:59.213Z,9.763198
2023-04-26T19:06:59.204Z,9.763198
2023-04-26T19:07:59.166Z,9.763198
2023-04-26T19:08:59.147Z,9.763198
2023-04-26T19:10:00.478Z,9.763198
2023-04-26T19:10:59.116Z,9.763198
2023-04-26T19:11:59.127Z,9.763198
2023-04-26T19:12:59.099Z,9.763198
2023-04-26T19:13:59.186Z,9.763198
2023-04-26T19:14:59.126Z,9.763198
2023-04-26T19:15:59.109Z,9.763198
2023-04-26T19:16:59.097Z,9.763198
2023-04-26T19:17:59.137Z,9.763198
2023-04-26T19:18:59.056Z,9.763198
2023-04-26T19:19:59.059Z,9.763198
2023-04-26T19:20:59.058Z,9.763198
2023-04-26T19:21:59.004Z,9.763198
2023-04-26T19:22:59.041Z,9.763198
2023-04-26T19:23:59.005Z,9.763198
2023-04-26T19:24:59.062Z,9.763198
2023-04-26T19:25:58.996Z,9.763198
2023-04-26T19:26:58.967Z,9.763198
2023-04-26T19:27:58.936Z,9.763198
2023-04-26T19:28:58.954Z,9.763198
2023-04-26T19:29:59.996Z,9.763198
2023-04-26T19:30:58.946Z,9.763198
2023-04-26T19:31:59.204Z,9.763198
2023-04-26T19:32:59.015Z,9.763198
2023-04-26T19:33:58.933Z,9.763198
2023-04-26T19:35:01.761Z,9.763198
2023-04-26T19:36:01.391Z,9.763198
2023-04-26T19:36:58.892Z,9.763198
2023-04-26T19:37:58.836Z,9.763198
2023-04-26T19:38:58.854Z,9.763198
2023-04-26T19:39:58.847Z,9.763198
2023-04-26T19:40:58.871Z,9.763198
2023-04-26T19:41:58.818Z,9.763198
2023-04-26T19:42:58.807Z,9.763198
2023-04-26T19:43:58.814Z,9.763198
2023-04-26T19:44:58.829Z,9.763198
2023-04-26T19:45:58.784Z,9.763198
2023-04-26T19:46:58.878Z,9.763198
2023-04-26T19:47:58.778Z,9.763198
2023-04-26T19:48:59.675Z,9.763198
2023-04-26T19:49:58.750Z,9.763198
2023-04-26T19:50:58.760Z,9.763198
2023-04-26T19:51:58.703Z,9.763198
2023-04-26T19:52:58.703Z,9.763198
2023-04-26T19:53:58.720Z,9.763198
2023-04-26T19:54:58.692Z,9.763198
2023-04-26T19:55:58.717Z,9.763198
2023-04-26T19:56:59.731Z,9.763198